createdAt,value
2022-10-22T00:00:26.474Z,12.57
2022-10-22T00:03:17.983Z,12.56
2022-10-22T00:05:49.976Z,12.58
2022-10-22T00:08:21.738Z,12.60
2022-10-22T00:10:53.875Z,12.54
2022-10-22T00:13:26.655Z,12.58
2022-10-22T00:15:58.777Z,12.59
2022-10-22T00:18:30.526Z,12.64
2022-10-22T00:21:02.407Z,12.56
2022-10-22T00:23:34.504Z,12.60
2022-10-22T00:26:06.228Z,12.67
2022-10-22T00:28:37.851Z,12.71
2022-10-22T00:31:09.514Z,12.75
2022-10-22T00:33:41.114Z,12.70
2022-10-22T00:36:12.976Z,12.71
2022-10-22T00:38:44.680Z,12.75
2022-10-22T00:41:16.967Z,12.76
2022-10-22T00:44:01.052Z,12.76
2022-10-22T00:46:32.763Z,12.71
2022-10-22T00:49:06.162Z,12.70
2022-10-22T00:51:38.332Z,12.72
2022-10-22T00:54:10.569Z,12.65
2022-10-22T00:56:42.441Z,12.51
2022-10-22T00:59:17.515Z,12.60
2022-10-22T01:01:50.368Z,12.62
2022-10-22T01:04:20.721Z,12.50
2022-10-22T01:06:52.569Z,12.46
2022-10-22T01:09:33.794Z,12.53
2022-10-22T01:12:13.119Z,12.55
2022-10-22T01:14:53.468Z,12.54
2022-10-22T01:17:33.613Z,12.61
2022-10-22T01:20:19.516Z,12.64
2022-10-22T01:23:02.481Z,12.62
2022-10-22T01:25:36.442Z,12.67
2022-10-22T01:28:19.563Z,12.68
2022-10-22T01:30:54.729Z,12.65
2022-10-22T01:33:27.780Z,12.70
2022-10-22T01:36:00.986Z,12.67
2022-10-22T01:38:33.715Z,12.57
2022-10-22T01:41:04.014Z,12.57
2022-10-22T01:43:36.063Z,12.56
2022-10-22T01:46:11.127Z,12.57
2022-10-22T01:48:54.300Z,12.62
2022-10-22T01:51:39.684Z,12.51
2022-10-22T01:54:22.382Z,12.50
2022-10-22T01:57:05.473Z,12.51
2022-10-22T01:59:47.202Z,12.60
2022-10-22T02:02:35.282Z,12.59
2022-10-22T02:05:12.904Z,12.66
2022-10-22T02:07:48.177Z,12.59
2022-10-22T02:10:20.761Z,12.47
2022-10-22T02:12:55.784Z,12.49
2022-10-22T02:15:30.742Z,12.50
2022-10-22T02:18:03.508Z,12.56
2022-10-22T02:20:39.417Z,12.46
2022-10-22T02:23:12.741Z,12.53
2022-10-22T02:25:49.305Z,12.58
2022-10-22T02:28:28.385Z,12.62
2022-10-22T02:31:07.586Z,12.57
2022-10-22T02:33:43.489Z,12.60
2022-10-22T02:36:16.779Z,12.58
2022-10-22T02:38:50.269Z,12.55
2022-10-22T02:41:22.492Z,12.52
2022-10-22T02:43:56.646Z,12.57
2022-10-22T02:46:28.318Z,12.54
2022-10-22T02:49:00.071Z,12.56
2022-10-22T02:51:31.829Z,12.59
2022-10-22T02:54:03.377Z,12.62
2022-10-22T02:56:35.426Z,12.64
2022-10-22T02:59:07.321Z,12.63
2022-10-22T03:01:38.875Z,12.59
2022-10-22T03:04:10.751Z,12.42
2022-10-22T03:06:43.996Z,12.50
2022-10-22T03:09:18.156Z,12.56
2022-10-22T03:11:51.788Z,12.61
2022-10-22T03:14:23.571Z,12.63
2022-10-22T03:16:55.157Z,12.56
2022-10-22T03:19:26.772Z,12.62
2022-10-22T03:22:01.211Z,12.55
2022-10-22T03:24:38.498Z,12.41
2022-10-22T03:27:11.110Z,12.52
2022-10-22T03:29:43.771Z,12.58
2022-10-22T03:32:15.476Z,12.62
2022-10-22T03:34:47.831Z,12.44
2022-10-22T03:37:20.298Z,12.51
2022-10-22T03:39:52.318Z,12.56
2022-10-22T03:42:24.494Z,12.61
2022-10-22T03:44:56.055Z,12.63
2022-10-22T03:47:28.107Z,12.67
2022-10-22T03:49:59.934Z,12.68
2022-10-22T03:52:36.231Z,12.69
2022-10-22T03:55:09.999Z,12.69
2022-10-22T03:57:42.216Z,12.65
2022-10-22T04:00:14.827Z,12.68
2022-10-22T04:02:46.396Z,12.70
2022-10-22T04:05:18.395Z,12.70
2022-10-22T04:07:50.057Z,12.59
2022-10-22T04:10:21.650Z,12.68
2022-10-22T04:12:54.363Z,12.66
2022-10-22T04:15:28.274Z,12.68
2022-10-22T04:18:00.178Z,12.71
2022-10-22T04:20:31.907Z,12.70
2022-10-22T04:23:03.452Z,12.73
2022-10-22T04:25:35.138Z,12.74
2022-10-22T04:28:09.261Z,12.72
2022-10-22T04:30:40.890Z,12.76
2022-10-22T04:33:12.501Z,12.73
2022-10-22T04:35:44.220Z,12.71
2022-10-22T04:38:15.991Z,12.75
2022-10-22T04:40:47.562Z,12.77
2022-10-22T04:43:19.122Z,12.70
2022-10-22T04:45:50.916Z,12.66
2022-10-22T04:48:22.515Z,12.66
2022-10-22T04:50:54.168Z,12.72
2022-10-22T04:53:25.954Z,12.75
2022-10-22T04:56:07.285Z,12.78
2022-10-22T04:58:39.434Z,12.74
2022-10-22T05:01:17.193Z,12.70
2022-10-22T05:03:49.854Z,12.69
2022-10-22T05:06:22.810Z,12.74
2022-10-22T05:08:57.970Z,12.76
2022-10-22T05:11:31.389Z,12.78
2022-10-22T05:14:05.166Z,12.80
2022-10-22T05:16:38.265Z,12.80
2022-10-22T05:19:12.934Z,12.74
2022-10-22T05:21:44.555Z,12.65
2022-10-22T05:24:16.505Z,12.64
2022-10-22T05:26:49.710Z,12.71
2022-10-22T05:29:22.148Z,12.65
2022-10-22T05:31:54.235Z,12.61
2022-10-22T05:34:26.420Z,12.73
2022-10-22T05:36:58.336Z,12.76
2022-10-22T05:39:30.418Z,12.78
2022-10-22T05:42:02.074Z,12.77
2022-10-22T05:44:33.703Z,12.79
2022-10-22T05:47:05.549Z,12.74
2022-10-22T05:49:38.044Z,12.75
2022-10-22T05:52:09.736Z,12.76
2022-10-22T05:54:42.291Z,12.77
2022-10-22T05:57:12.649Z,12.81
2022-10-22T05:59:44.358Z,12.86
2022-10-22T06:02:16.476Z,12.87
2022-10-22T06:04:48.898Z,12.81
2022-10-22T06:07:20.711Z,12.88
2022-10-22T06:09:53.989Z,12.90
2022-10-22T06:12:25.740Z,12.89
2022-10-22T06:14:57.679Z,12.86
2022-10-22T06:17:30.174Z,12.92
2022-10-22T06:20:01.895Z,12.94
2022-10-22T06:22:34.069Z,12.97
2022-10-22T06:25:08.400Z,12.89
2022-10-22T06:27:40.267Z,12.93
2022-10-22T06:30:14.751Z,12.98
2022-10-22T06:32:47.023Z,12.99
2022-10-22T06:35:18.909Z,13.02
2022-10-22T06:37:50.691Z,13.03
2022-10-22T06:40:22.447Z,13.04
2022-10-22T06:42:54.182Z,13.07
2022-10-22T06:45:26.190Z,13.08
2022-10-22T06:47:58.042Z,13.11
2022-10-22T06:50:30.009Z,13.14
2022-10-22T06:53:02.045Z,13.15
2022-10-22T06:55:33.787Z,13.06
2022-10-22T06:58:07.005Z,13.12
2022-10-22T07:00:38.729Z,13.21
2022-10-22T07:03:13.858Z,13.25
2022-10-22T07:05:45.775Z,13.29
2022-10-22T07:08:17.614Z,13.23
2022-10-22T07:10:49.304Z,13.26
2022-10-22T07:13:21.021Z,13.28
2022-10-22T07:15:56.314Z,13.29
2022-10-22T07:18:28.163Z,13.21
2022-10-22T07:21:00.237Z,13.15
2022-10-22T07:23:33.123Z,13.20
2022-10-22T07:26:03.615Z,13.24
2022-10-22T07:28:37.998Z,13.26
2022-10-22T07:31:10.967Z,13.30
2022-10-22T07:33:43.523Z,13.35
2022-10-22T07:36:18.505Z,13.38
2022-10-22T07:38:55.756Z,13.40
2022-10-22T07:41:28.629Z,13.44
2022-10-22T07:44:01.492Z,13.49
2022-10-22T07:46:35.312Z,13.46
2022-10-22T07:49:07.025Z,13.48
2022-10-22T07:51:39.134Z,13.54
2022-10-22T07:54:10.988Z,13.54
2022-10-22T07:56:42.961Z,13.54
2022-10-22T07:59:14.659Z,13.59
2022-10-22T08:01:47.580Z,13.60
2022-10-22T08:04:20.739Z,13.58
2022-10-22T08:06:52.382Z,13.52
2022-10-22T08:09:24.010Z,13.51
2022-10-22T08:11:55.718Z,13.45
2022-10-22T08:14:27.825Z,13.43
2022-10-22T08:16:59.624Z,13.46
2022-10-22T08:19:32.517Z,13.53
2022-10-22T08:22:04.884Z,13.57
2022-10-22T08:24:37.229Z,13.59
2022-10-22T08:27:09.026Z,13.63
2022-10-22T08:29:41.460Z,13.67
2022-10-22T08:32:13.887Z,13.55
2022-10-22T08:34:45.901Z,13.48
2022-10-22T08:37:17.825Z,13.59
2022-10-22T08:39:49.514Z,13.67
2022-10-22T08:42:40.788Z,13.70
2022-10-22T08:45:22.911Z,13.67
2022-10-22T08:48:18.294Z,13.73
2022-10-22T08:50:52.228Z,13.74
2022-10-22T08:53:28.658Z,13.62
2022-10-22T08:56:00.859Z,13.64
2022-10-22T08:58:41.361Z,13.72
2022-10-22T09:01:18.578Z,13.81
2022-10-22T09:03:55.407Z,13.78
2022-10-22T09:06:29.373Z,13.83
2022-10-22T09:09:03.489Z,13.82
2022-10-22T09:11:38.087Z,13.86
2022-10-22T09:14:16.890Z,13.94
2022-10-22T09:17:12.608Z,14.01
2022-10-22T09:19:59.463Z,14.04
2022-10-22T09:22:39.681Z,14.13
2022-10-22T09:25:21.990Z,14.17
2022-10-22T09:27:58.444Z,14.17
2022-10-22T09:30:34.571Z,14.20
2022-10-22T09:33:15.992Z,14.22
2022-10-22T09:35:53.375Z,14.25
2022-10-22T09:38:28.349Z,14.30
2022-10-22T09:41:03.766Z,14.29
2022-10-22T09:43:37.046Z,14.37
2022-10-22T09:46:16.334Z,14.42
2022-10-22T09:48:53.386Z,14.43
2022-10-22T09:51:29.585Z,14.46
2022-10-22T09:54:03.865Z,14.60
2022-10-22T09:56:41.766Z,14.50
2022-10-22T09:59:17.746Z,14.43
2022-10-22T10:02:04.966Z,14.34
2022-10-22T10:04:49.908Z,14.36
2022-10-22T10:07:23.939Z,14.31
2022-10-22T10:09:57.120Z,14.26
2022-10-22T10:12:41.393Z,14.26
2022-10-22T10:15:17.330Z,14.19
2022-10-22T10:17:59.318Z,14.23
2022-10-22T10:20:41.181Z,14.24
2022-10-22T10:23:25.587Z,14.22
2022-10-22T10:26:03.351Z,14.25
2022-10-22T10:28:56.349Z,14.26
2022-10-22T10:31:40.068Z,14.25
2022-10-22T10:34:25.021Z,14.23
2022-10-22T10:37:06.129Z,14.18
2022-10-22T10:39:50.553Z,14.13
2022-10-22T10:42:29.308Z,14.17
2022-10-22T10:45:13.133Z,14.18
2022-10-22T10:48:08.611Z,14.16
2022-10-22T10:50:51.595Z,14.12
2022-10-22T10:53:27.417Z,14.15
2022-10-22T10:56:08.928Z,14.17
2022-10-22T10:58:49.819Z,14.12
2022-10-22T11:01:30.838Z,14.17
2022-10-22T11:04:15.333Z,14.18
2022-10-22T11:06:47.705Z,14.14
2022-10-22T11:09:26.097Z,14.18
2022-10-22T11:12:02.378Z,14.17
2022-10-22T11:14:41.507Z,14.20
2022-10-22T11:17:18.033Z,14.20
2022-10-22T11:19:59.971Z,14.25
2022-10-22T11:22:38.340Z,14.27
2022-10-22T11:25:19.869Z,14.34
2022-10-22T11:27:57.519Z,14.38
2022-10-22T11:30:36.670Z,14.39
2022-10-22T11:33:12.516Z,14.39
2022-10-22T11:35:47.030Z,14.35
2022-10-22T11:38:23.513Z,14.43
2022-10-22T11:41:01.368Z,14.43
2022-10-22T11:43:36.235Z,14.42
2022-10-22T11:46:30.680Z,14.52
2022-10-22T11:49:17.970Z,14.58
2022-10-22T11:51:50.086Z,14.51
2022-10-22T11:54:42.602Z,14.52
2022-10-22T11:57:26.652Z,14.57
2022-10-22T12:00:01.757Z,14.50
2022-10-22T12:02:47.501Z,14.42
2022-10-22T12:05:45.471Z,14.35
2022-10-22T12:08:34.045Z,14.44
2022-10-22T12:11:21.163Z,14.51
2022-10-22T12:14:15.677Z,14.54
2022-10-22T12:16:57.818Z,14.55
2022-10-22T12:19:38.034Z,14.51
2022-10-22T12:22:19.383Z,14.55
2022-10-22T12:24:53.821Z,14.58
2022-10-22T12:27:27.685Z,14.57
2022-10-22T12:30:01.711Z,14.59
2022-10-22T12:32:38.373Z,14.58
2022-10-22T12:35:16.647Z,14.58
2022-10-22T12:37:52.674Z,14.55
2022-10-22T12:40:28.011Z,14.54
2022-10-22T12:43:02.122Z,15.51
2022-10-22T12:45:36.068Z,15.33
2022-10-22T12:48:15.455Z,15.00
2022-10-22T12:50:50.504Z,14.83
2022-10-22T12:53:27.164Z,14.73
2022-10-22T12:56:03.362Z,14.75
2022-10-22T12:58:40.572Z,14.73
2022-10-22T13:01:15.334Z,14.51
2022-10-22T13:03:50.796Z,14.52
2022-10-22T13:06:29.614Z,14.51
2022-10-22T13:09:17.766Z,14.48
2022-10-22T13:11:55.101Z,14.41
2022-10-22T13:14:31.829Z,14.29
2022-10-22T13:17:12.160Z,14.41
2022-10-22T13:19:50.148Z,14.39
2022-10-22T13:22:35.965Z,14.38
2022-10-22T13:25:25.097Z,14.28
2022-10-22T13:27:59.598Z,14.22
2022-10-22T13:30:33.171Z,14.32
2022-10-22T13:33:07.276Z,14.34
2022-10-22T13:35:39.976Z,14.28
2022-10-22T13:38:19.898Z,14.24
2022-10-22T13:40:54.561Z,14.14
2022-10-22T13:43:26.414Z,14.13
2022-10-22T13:46:00.741Z,14.12
2022-10-22T13:48:33.345Z,14.19
2022-10-22T13:51:03.884Z,14.21
2022-10-22T13:53:36.935Z,14.19
2022-10-22T13:56:11.351Z,14.19
2022-10-22T13:58:43.467Z,14.18
2022-10-22T14:01:22.794Z,14.20
2022-10-22T14:03:58.669Z,14.21
2022-10-22T14:06:33.852Z,14.22
2022-10-22T14:09:13.274Z,14.23
2022-10-22T14:11:45.054Z,14.21
2022-10-22T14:14:17.338Z,14.20
2022-10-22T14:16:49.269Z,14.25
2022-10-22T14:19:21.074Z,14.24
2022-10-22T14:21:52.867Z,14.26
2022-10-22T14:24:24.567Z,14.22
2022-10-22T14:26:56.329Z,14.24
2022-10-22T14:29:28.120Z,14.25
2022-10-22T14:32:00.004Z,14.28
2022-10-22T14:34:31.595Z,14.29
2022-10-22T14:37:03.450Z,14.27
2022-10-22T14:39:35.104Z,14.28
2022-10-22T14:42:06.888Z,14.28
2022-10-22T14:44:38.513Z,14.24
2022-10-22T14:47:10.254Z,14.30
2022-10-22T14:49:42.135Z,14.28
2022-10-22T14:52:14.935Z,14.26
2022-10-22T14:54:48.628Z,14.29
2022-10-22T14:57:20.318Z,14.34
2022-10-22T14:59:54.859Z,14.37
2022-10-22T15:02:27.237Z,14.40
2022-10-22T15:04:59.017Z,14.36
2022-10-22T15:07:31.850Z,14.35
2022-10-22T15:10:03.754Z,14.33
2022-10-22T15:12:35.824Z,14.38
2022-10-22T15:15:09.266Z,14.36
2022-10-22T15:17:41.292Z,14.35
2022-10-22T15:20:13.441Z,14.36
2022-10-22T15:22:45.579Z,14.34
2022-10-22T15:25:17.253Z,14.36
2022-10-22T15:27:51.294Z,14.42
2022-10-22T15:30:24.315Z,14.44
2022-10-22T15:32:56.097Z,14.46
2022-10-22T15:35:29.883Z,14.44
2022-10-22T15:38:01.698Z,14.44
2022-10-22T15:40:33.419Z,14.45
2022-10-22T15:43:05.078Z,14.51
2022-10-22T15:45:36.962Z,14.52
2022-10-22T15:48:11.357Z,14.50
2022-10-22T15:50:45.241Z,14.46
2022-10-22T15:53:17.085Z,14.50
2022-10-22T15:55:52.500Z,14.43
2022-10-22T15:58:24.328Z,14.43
2022-10-22T16:00:56.674Z,14.49
2022-10-22T16:03:28.346Z,14.52
2022-10-22T16:06:00.215Z,14.48
2022-10-22T16:08:32.210Z,14.47
2022-10-22T16:11:05.213Z,14.52
2022-10-22T16:13:37.129Z,14.54
2022-10-22T16:16:11.519Z,14.54
2022-10-22T16:18:43.588Z,14.51
2022-10-22T16:21:17.008Z,14.54
2022-10-22T16:23:49.285Z,14.56
2022-10-22T16:26:23.721Z,14.55
2022-10-22T16:28:55.787Z,14.59
2022-10-22T16:31:27.502Z,14.66
2022-10-22T16:33:59.941Z,14.67
2022-10-22T16:36:31.785Z,14.58
2022-10-22T16:39:04.871Z,14.61
2022-10-22T16:41:37.248Z,14.59
2022-10-22T16:44:12.513Z,14.60
2022-10-22T16:46:44.827Z,14.65
2022-10-22T16:49:17.037Z,14.65
2022-10-22T16:51:48.978Z,14.63
2022-10-22T16:54:21.934Z,14.62
2022-10-22T16:56:54.782Z,14.60
2022-10-22T16:59:26.689Z,14.62
2022-10-22T17:01:58.756Z,14.64
2022-10-22T17:04:30.643Z,14.67
2022-10-22T17:07:02.596Z,14.66
2022-10-22T17:09:34.317Z,14.67
2022-10-22T17:12:06.640Z,14.74
2022-10-22T17:14:38.673Z,14.72
2022-10-22T17:17:10.405Z,14.70
2022-10-22T17:19:42.808Z,14.72
2022-10-22T17:22:16.241Z,14.80
2022-10-22T17:25:05.225Z,14.78
2022-10-22T17:27:37.040Z,14.74
2022-10-22T17:30:13.290Z,14.77
2022-10-22T17:32:45.617Z,14.81
2022-10-22T17:35:18.084Z,14.79
2022-10-22T17:37:49.851Z,14.80
2022-10-22T17:40:21.887Z,14.76
2022-10-22T17:42:53.668Z,14.79
2022-10-22T17:45:25.346Z,14.82
2022-10-22T17:47:57.275Z,14.77
2022-10-22T17:50:28.938Z,14.79
2022-10-22T17:53:00.995Z,14.82
2022-10-22T17:55:34.656Z,14.82
2022-10-22T17:58:06.293Z,14.81
2022-10-22T18:00:39.449Z,14.74
2022-10-22T18:03:12.055Z,14.74
2022-10-22T18:05:43.671Z,14.73
2022-10-22T18:08:15.371Z,14.70
2022-10-22T18:10:47.237Z,14.66
2022-10-22T18:13:22.075Z,14.66
2022-10-22T18:15:57.829Z,14.64
2022-10-22T18:18:29.861Z,14.61
2022-10-22T18:21:01.611Z,14.59
2022-10-22T18:23:33.370Z,14.61
2022-10-22T18:26:06.894Z,14.62
2022-10-22T18:28:38.645Z,14.61
2022-10-22T18:31:13.460Z,14.62
2022-10-22T18:33:45.543Z,14.65
2022-10-22T18:36:20.518Z,14.69
2022-10-22T18:38:54.046Z,14.64
2022-10-22T18:41:26.678Z,14.61
2022-10-22T18:43:58.813Z,14.69
2022-10-22T18:46:38.507Z,14.68
2022-10-22T18:49:14.870Z,14.64
2022-10-22T18:51:48.772Z,14.67
2022-10-22T18:54:23.693Z,14.65
2022-10-22T18:57:00.479Z,14.62
2022-10-22T18:59:34.458Z,14.60
2022-10-22T19:02:06.498Z,14.61
2022-10-22T19:04:38.083Z,14.63
2022-10-22T19:09:46.531Z,14.65
2022-10-22T19:12:21.518Z,14.66
2022-10-22T19:14:53.583Z,14.65
2022-10-22T19:17:25.759Z,14.67
2022-10-22T19:19:57.518Z,14.66
2022-10-22T19:22:29.910Z,14.67
2022-10-22T19:25:01.539Z,14.68
2022-10-22T19:27:33.595Z,14.64
2022-10-22T19:30:06.458Z,14.61
2022-10-22T19:32:36.590Z,14.60
2022-10-22T19:35:10.257Z,14.58
2022-10-22T19:37:46.189Z,14.61
2022-10-22T19:40:20.218Z,14.59
2022-10-22T19:42:52.209Z,14.57
2022-10-22T19:45:23.832Z,14.56
2022-10-22T19:47:55.641Z,14.52
2022-10-22T19:50:27.582Z,14.50
2022-10-22T19:52:59.697Z,14.46
2022-10-22T19:55:31.658Z,14.41
2022-10-22T19:58:03.766Z,14.37
2022-10-22T20:00:36.319Z,14.37
2022-10-22T20:03:08.544Z,14.32
2022-10-22T20:05:42.945Z,14.30
2022-10-22T20:08:15.239Z,14.31
2022-10-22T20:10:50.718Z,14.28
2022-10-22T20:13:22.622Z,14.22
2022-10-22T20:15:54.307Z,14.21
2022-10-22T20:18:25.995Z,14.19
2022-10-22T20:20:57.622Z,14.14
2022-10-22T20:23:29.297Z,14.20
2022-10-22T20:26:01.427Z,14.17
2022-10-22T20:28:33.481Z,14.09
2022-10-22T20:31:11.721Z,14.07
2022-10-22T20:33:43.747Z,14.07
2022-10-22T20:36:19.504Z,14.03
2022-10-22T20:38:52.513Z,14.01
2022-10-22T20:41:25.234Z,14.01
2022-10-22T20:43:57.114Z,14.00
2022-10-22T20:46:31.300Z,14.02
2022-10-22T20:49:05.438Z,14.11
2022-10-22T20:51:38.056Z,14.13
2022-10-22T20:54:09.044Z,14.17
2022-10-22T20:56:42.494Z,14.17
2022-10-22T20:59:14.351Z,14.10
2022-10-22T21:01:48.860Z,14.12
2022-10-22T21:04:22.127Z,14.05
2022-10-22T21:06:54.153Z,13.99
2022-10-22T21:09:26.785Z,14.00
2022-10-22T21:12:03.410Z,13.93
2022-10-22T21:14:35.525Z,13.98
2022-10-22T21:17:08.199Z,13.97
2022-10-22T21:19:40.196Z,13.91
2022-10-22T21:22:11.898Z,13.89
2022-10-22T21:24:43.533Z,13.80
2022-10-22T21:27:15.175Z,13.74
2022-10-22T21:29:46.860Z,13.68
2022-10-22T21:32:18.425Z,13.65
2022-10-22T21:34:49.977Z,13.59
2022-10-22T21:37:22.816Z,13.59
2022-10-22T21:39:54.506Z,13.53
2022-10-22T21:42:26.127Z,13.48
2022-10-22T21:44:57.801Z,13.53
2022-10-22T21:47:29.496Z,13.53
2022-10-22T21:50:01.940Z,13.59
2022-10-22T21:52:33.634Z,13.68
2022-10-22T21:55:05.632Z,13.69
2022-10-22T21:57:37.241Z,13.75
2022-10-22T22:00:12.230Z,13.72
2022-10-22T22:02:50.434Z,13.66
2022-10-22T22:05:22.608Z,13.60
2022-10-22T22:07:54.618Z,13.67
2022-10-22T22:10:27.280Z,13.62
2022-10-22T22:12:58.850Z,13.58
2022-10-22T22:15:31.674Z,13.55
2022-10-22T22:18:03.348Z,13.55
2022-10-22T22:20:35.089Z,13.58
2022-10-22T22:23:06.681Z,13.62
2022-10-22T22:25:38.507Z,13.76
2022-10-22T22:28:10.125Z,13.80
2022-10-22T22:30:41.734Z,13.85
2022-10-22T22:33:13.611Z,13.88
2022-10-22T22:35:45.315Z,13.83
2022-10-22T22:38:17.702Z,13.83
2022-10-22T22:40:49.317Z,13.87
2022-10-22T22:43:20.920Z,13.86
2022-10-22T22:46:01.553Z,13.89
2022-10-22T22:48:33.822Z,13.92
2022-10-22T22:51:06.404Z,13.89
2022-10-22T22:53:36.960Z,13.93
2022-10-22T22:56:11.206Z,13.85
2022-10-22T22:58:43.857Z,13.82
2022-10-22T23:01:15.489Z,13.89
2022-10-22T23:03:48.940Z,13.79
2022-10-22T23:06:20.864Z,13.77
2022-10-22T23:08:54.090Z,13.77
2022-10-22T23:11:27.694Z,13.77
2022-10-22T23:14:01.356Z,13.83
2022-10-22T23:16:36.726Z,13.88
2022-10-22T23:19:08.501Z,13.93
2022-10-22T23:21:42.724Z,13.99
2022-10-22T23:24:17.790Z,14.04
2022-10-22T23:26:51.371Z,14.07
2022-10-22T23:29:26.259Z,14.09
2022-10-22T23:32:00.151Z,14.06
2022-10-22T23:34:33.030Z,14.07
2022-10-22T23:37:04.734Z,14.11
2022-10-22T23:39:36.380Z,14.11
2022-10-22T23:42:08.169Z,14.12
2022-10-22T23:44:39.953Z,14.14
2022-10-22T23:47:11.597Z,14.19
2022-10-22T23:49:43.448Z,14.20
2022-10-22T23:52:15.391Z,14.18
2022-10-22T23:54:47.387Z,14.24
2022-10-22T23:57:19.054Z,14.28
2022-10-22T23:59:50.634Z,14.29
